Terminal Aerodrome Forecast
Issued by NWS

Home | Current Version | Previous Version | Text Only | Print | Product List | Glossary On
Versions: 1 2 3 4 5 6 7 8 9 10 11 12 13 14 15 16 17 18 19 20 21 22 23 24 25 26 27 28 29 30
000
FTUS45 KGJT 290536
TAFTEX
TAF
KTEX 290536Z 2906/3006 00000KT P6SM VCSH SCT040 OVC060
     FM291000 24005KT 5SM -SN BR SCT015 OVC030
     FM291400 25005KT 3SM -SN BR SCT010 OVC025
     FM291800 25010KT 3SM -SN BR SCT020 OVC040
     FM300000 22005KT P6SM VCSH BKN035 OVC050=

USA.gov is the U.S. government's official web portal to all federal, state and local government web resources and services.